SWA2043 KLFT-KAUS
Flight info
| Callsign | SWA2043 |
|---|---|
| Flight time | N/A |
| Altitude | 30000 |
| Route | KAPGT SBI LUKKN WLEEE7 |
| Aircraft | B738/M-SDE2E3FGHIRWXY/LB1 |
Departure
| Time | 2026-04-24 21:10 |
|---|---|
| Airport | Lafayette Regional Airport (KLFT) |
Arrival
| Time | N/A |
|---|---|
| Airport | Austin Bergstrom International Airport (KAUS) |
| Time | Latitude | Longitude | Altitude | Speed | Heading |
|---|---|---|---|---|---|
| 2026-04-24 20:47 | 30.20799 | -91.99240 | 42 ft | 0 kts | 298° |
| 2026-04-24 21:01 | 30.20797 | -91.99236 | 42 ft | 2 kts | 301° |
| 2026-04-24 21:01 | 30.20789 | -91.99222 | 42 ft | 2 kts | 303° |
| 2026-04-24 21:02 | 30.20781 | -91.99207 | 42 ft | 2 kts | 302° |
| 2026-04-24 21:02 | 30.20776 | -91.99198 | 42 ft | 1 kts | 304° |
| 2026-04-24 21:02 | 30.20774 | -91.99189 | 42 ft | 1 kts | 245° |
| 2026-04-24 21:02 | 30.20780 | -91.99181 | 42 ft | 1 kts | 193° |
| 2026-04-24 21:03 | 30.20786 | -91.99181 | 42 ft | 0 kts | 180° |
| 2026-04-24 21:03 | 30.20789 | -91.99181 | 42 ft | 0 kts | 183° |
| 2026-04-24 21:04 | 30.20774 | -91.99182 | 42 ft | 4 kts | 186° |
| 2026-04-24 21:05 | 30.20724 | -91.99169 | 42 ft | 17 kts | 142° |
| 2026-04-24 21:05 | 30.20661 | -91.99089 | 42 ft | 9 kts | 120° |
| 2026-04-24 21:05 | 30.20638 | -91.99039 | 42 ft | 5 kts | 115° |
| 2026-04-24 21:05 | 30.20618 | -91.98991 | 42 ft | 5 kts | 114° |
| 2026-04-24 21:06 | 30.20603 | -91.98927 | 42 ft | 11 kts | 94° |
| 2026-04-24 21:06 | 30.20570 | -91.98826 | 42 ft | 17 kts | 113° |
| 2026-04-24 21:06 | 30.20604 | -91.98695 | 41 ft | 18 kts | 27° |
| 2026-04-24 21:06 | 30.20690 | -91.98647 | 41 ft | 10 kts | 50° |
| 2026-04-24 21:07 | 30.20780 | -91.98536 | 38 ft | 20 kts | 41° |
| 2026-04-24 21:07 | 30.20918 | -91.98409 | 34 ft | 23 kts | 40° |
| 2026-04-24 21:07 | 30.21023 | -91.98312 | 31 ft | 16 kts | 38° |
| 2026-04-24 21:07 | 30.21109 | -91.98235 | 28 ft | 22 kts | 38° |
| 2026-04-24 21:08 | 30.21259 | -91.98087 | 25 ft | 32 kts | 39° |
| 2026-04-24 21:08 | 30.21347 | -91.98006 | 22 ft | 10 kts | 39° |
| 2026-04-24 21:08 | 30.21373 | -91.97979 | 22 ft | 6 kts | 45° |
| 2026-04-24 21:08 | 30.21386 | -91.97950 | 22 ft | 5 kts | 83° |
| 2026-04-24 21:09 | 30.21372 | -91.97894 | 22 ft | 19 kts | 117° |
| 2026-04-24 21:09 | 30.21286 | -91.97833 | 22 ft | 12 kts | 187° |
| 2026-04-24 21:09 | 30.21227 | -91.97868 | 22 ft | 8 kts | 219° |
| 2026-04-24 21:09 | 30.20975 | -91.98101 | 26 ft | 88 kts | 219° |
| 2026-04-24 21:10 | 30.20298 | -91.98731 | 41 ft | 158 kts | 218° |
| 2026-04-24 21:10 | 30.19421 | -91.99570 | 776 ft | 167 kts | 218° |
| 2026-04-24 21:10 | 30.18516 | -92.00480 | 1401 ft | 185 kts | 220° |
| 2026-04-24 21:10 | 30.17472 | -92.01538 | 1832 ft | 215 kts | 219° |
| 2026-04-24 21:11 | 30.16295 | -92.02682 | 2604 ft | 229 kts | 219° |
| 2026-04-24 21:11 | 30.15142 | -92.03850 | 3728 ft | 226 kts | 229° |
| 2026-04-24 21:11 | 30.14385 | -92.05427 | 4787 ft | 225 kts | 248° |
| 2026-04-24 21:11 | 30.13767 | -92.06937 | 6066 ft | 210 kts | 238° |
| 2026-04-24 21:12 | 30.12902 | -92.08333 | 6857 ft | 218 kts | 232° |
| 2026-04-24 21:12 | 30.11988 | -92.09618 | 7962 ft | 207 kts | 231° |
| 2026-04-24 21:12 | 30.11074 | -92.10871 | 8741 ft | 212 kts | 231° |
| 2026-04-24 21:12 | 30.10066 | -92.12228 | 9108 ft | 236 kts | 231° |
| 2026-04-24 21:13 | 30.08939 | -92.13728 | 9620 ft | 255 kts | 231° |
| 2026-04-24 21:13 | 30.07725 | -92.15340 | 9955 ft | 280 kts | 231° |
| 2026-04-24 21:13 | 30.06430 | -92.17057 | 10624 ft | 291 kts | 232° |
| 2026-04-24 21:13 | 30.05327 | -92.19153 | 10753 ft | 318 kts | 254° |
| 2026-04-24 21:14 | 30.05096 | -92.21721 | 11213 ft | 331 kts | 273° |
| 2026-04-24 21:14 | 30.05216 | -92.24448 | 11386 ft | 355 kts | 272° |
| 2026-04-24 21:14 | 30.05212 | -92.27327 | 12113 ft | 360 kts | 269° |
| 2026-04-24 21:14 | 30.05140 | -92.30209 | 12840 ft | 364 kts | 269° |
| 2026-04-24 21:15 | 30.05055 | -92.33115 | 13565 ft | 367 kts | 269° |
| 2026-04-24 21:15 | 30.04954 | -92.36060 | 14447 ft | 365 kts | 269° |
| 2026-04-24 21:15 | 30.04845 | -92.38986 | 15051 ft | 371 kts | 269° |
| 2026-04-24 21:15 | 30.04729 | -92.41943 | 15864 ft | 370 kts | 269° |
| 2026-04-24 21:16 | 30.04610 | -92.44900 | 16493 ft | 373 kts | 269° |
| 2026-04-24 21:16 | 30.04486 | -92.47881 | 17209 ft | 373 kts | 269° |
| 2026-04-24 21:16 | 30.04359 | -92.50909 | 17841 ft | 376 kts | 269° |
| 2026-04-24 21:16 | 30.04233 | -92.53885 | 18458 ft | 377 kts | 269° |
| 2026-04-24 21:17 | 30.04102 | -92.56921 | 19077 ft | 379 kts | 269° |
| 2026-04-24 21:17 | 30.03971 | -92.59941 | 19644 ft | 381 kts | 269° |
| 2026-04-24 21:17 | 30.03835 | -92.63021 | 20254 ft | 382 kts | 270° |
| 2026-04-24 21:17 | 30.03699 | -92.66119 | 20791 ft | 385 kts | 269° |
| 2026-04-24 21:18 | 30.03561 | -92.69192 | 21346 ft | 386 kts | 269° |
| 2026-04-24 21:18 | 30.03422 | -92.72290 | 21881 ft | 388 kts | 269° |
| 2026-04-24 21:18 | 30.03280 | -92.75408 | 22387 ft | 390 kts | 269° |
| 2026-04-24 21:18 | 30.03138 | -92.78547 | 22883 ft | 391 kts | 269° |
| 2026-04-24 21:19 | 30.02996 | -92.81679 | 23361 ft | 393 kts | 270° |
| 2026-04-24 21:19 | 30.02853 | -92.84804 | 23807 ft | 395 kts | 270° |
| 2026-04-24 21:19 | 30.02706 | -92.87996 | 24276 ft | 396 kts | 270° |
| 2026-04-24 21:19 | 30.02560 | -92.91151 | 24743 ft | 397 kts | 270° |
| 2026-04-24 21:20 | 30.02258 | -92.97527 | 25738 ft | 397 kts | 270° |
| 2026-04-24 21:20 | 30.02108 | -93.00670 | 26276 ft | 396 kts | 271° |
| 2026-04-24 21:20 | 30.01955 | -93.03833 | 26836 ft | 393 kts | 271° |
| 2026-04-24 21:21 | 30.01801 | -93.06974 | 27414 ft | 390 kts | 271° |
| 2026-04-24 21:21 | 30.01650 | -93.10041 | 27966 ft | 387 kts | 271° |
| 2026-04-24 21:21 | 30.01497 | -93.13128 | 28553 ft | 383 kts | 271° |
| 2026-04-24 21:21 | 30.01345 | -93.16195 | 29087 ft | 380 kts | 272° |
| 2026-04-24 21:22 | 30.01196 | -93.19193 | 29616 ft | 377 kts | 272° |
| 2026-04-24 21:22 | 30.01047 | -93.22208 | 29898 ft | 376 kts | 272° |
| 2026-04-24 21:22 | 30.00900 | -93.25265 | 29894 ft | 382 kts | 272° |
| 2026-04-24 21:23 | 30.00604 | -93.31435 | 29896 ft | 391 kts | 272° |
| 2026-04-24 21:23 | 30.00294 | -93.37798 | 29890 ft | 399 kts | 272° |
| 2026-04-24 21:24 | 29.99976 | -93.44219 | 29888 ft | 400 kts | 272° |
| 2026-04-24 21:24 | 29.99658 | -93.50588 | 29889 ft | 399 kts | 272° |
| 2026-04-24 21:25 | 29.99338 | -93.56977 | 29890 ft | 399 kts | 272° |
| 2026-04-24 21:25 | 29.99014 | -93.63384 | 29889 ft | 399 kts | 272° |
| 2026-04-24 21:26 | 29.98683 | -93.69807 | 29890 ft | 400 kts | 271° |
| 2026-04-24 21:26 | 29.98349 | -93.76194 | 29889 ft | 400 kts | 271° |
| 2026-04-24 21:27 | 29.98014 | -93.82615 | 29890 ft | 400 kts | 271° |
| 2026-04-24 21:27 | 29.97679 | -93.88980 | 29887 ft | 400 kts | 271° |
| 2026-04-24 21:28 | 29.97339 | -93.95379 | 29881 ft | 400 kts | 271° |
| 2026-04-24 21:28 | 29.96998 | -94.01780 | 29874 ft | 400 kts | 271° |
| 2026-04-24 21:29 | 29.96653 | -94.08173 | 29868 ft | 400 kts | 271° |
| 2026-04-24 21:29 | 29.96306 | -94.14539 | 29864 ft | 400 kts | 271° |
| 2026-04-24 21:30 | 29.95953 | -94.20957 | 29861 ft | 400 kts | 271° |
| 2026-04-24 21:30 | 29.95598 | -94.27377 | 29857 ft | 400 kts | 271° |
| 2026-04-24 21:31 | 29.95243 | -94.33736 | 29854 ft | 400 kts | 271° |
| 2026-04-24 21:31 | 29.94881 | -94.40151 | 29853 ft | 400 kts | 271° |
| 2026-04-24 21:32 | 29.94517 | -94.46571 | 29853 ft | 400 kts | 271° |
| 2026-04-24 21:32 | 29.94152 | -94.52941 | 29854 ft | 400 kts | 271° |
| 2026-04-24 21:33 | 29.93782 | -94.59367 | 29479 ft | 403 kts | 271° |
| 2026-04-24 21:33 | 29.93593 | -94.62602 | 29302 ft | 403 kts | 271° |
| 2026-04-24 21:33 | 29.93406 | -94.65823 | 28996 ft | 404 kts | 271° |
| 2026-04-24 21:33 | 29.93216 | -94.69045 | 28776 ft | 404 kts | 271° |
| 2026-04-24 21:34 | 29.93022 | -94.72296 | 28681 ft | 404 kts | 271° |
| 2026-04-24 21:34 | 29.92637 | -94.78828 | 28048 ft | 413 kts | 271° |
| 2026-04-24 21:34 | 29.92442 | -94.82087 | 27541 ft | 415 kts | 270° |
| 2026-04-24 21:35 | 29.92244 | -94.85415 | 27119 ft | 412 kts | 270° |
| 2026-04-24 21:35 | 29.92050 | -94.88704 | 26683 ft | 417 kts | 270° |
| 2026-04-24 21:35 | 29.91854 | -94.92032 | 26177 ft | 419 kts | 270° |
| 2026-04-24 21:35 | 29.91655 | -94.95386 | 25615 ft | 422 kts | 270° |
| 2026-04-24 21:36 | 29.91454 | -94.98756 | 25178 ft | 422 kts | 270° |
| 2026-04-24 21:36 | 29.91253 | -95.02113 | 24559 ft | 417 kts | 270° |
| 2026-04-24 21:36 | 29.91054 | -95.05426 | 24039 ft | 416 kts | 270° |
| 2026-04-24 21:36 | 29.90854 | -95.08782 | 23803 ft | 424 kts | 269° |
| 2026-04-24 21:37 | 29.90650 | -95.12146 | 23798 ft | 413 kts | 269° |
| 2026-04-24 21:37 | 29.90448 | -95.15369 | 23832 ft | 399 kts | 269° |
| 2026-04-24 21:37 | 29.90252 | -95.18520 | 23836 ft | 392 kts | 270° |
| 2026-04-24 21:37 | 29.90058 | -95.21634 | 23832 ft | 377 kts | 270° |
| 2026-04-24 21:38 | 29.89872 | -95.24555 | 23830 ft | 356 kts | 270° |
| 2026-04-24 21:38 | 29.89696 | -95.27320 | 23833 ft | 337 kts | 270° |
| 2026-04-24 21:38 | 29.89530 | -95.29982 | 23840 ft | 335 kts | 270° |
| 2026-04-24 21:38 | 29.89364 | -95.32694 | 23843 ft | 342 kts | 270° |
| 2026-04-24 21:39 | 29.89193 | -95.35432 | 23847 ft | 343 kts | 270° |
| 2026-04-24 21:39 | 29.89017 | -95.38178 | 23830 ft | 343 kts | 270° |
| 2026-04-24 21:39 | 29.88842 | -95.40926 | 23834 ft | 342 kts | 270° |
| 2026-04-24 21:39 | 29.88666 | -95.43667 | 23836 ft | 342 kts | 270° |
| 2026-04-24 21:40 | 29.88490 | -95.46397 | 23836 ft | 342 kts | 270° |
| 2026-04-24 21:40 | 29.88312 | -95.49156 | 23835 ft | 343 kts | 270° |
| 2026-04-24 21:40 | 29.88135 | -95.51910 | 23846 ft | 352 kts | 270° |
| 2026-04-24 21:40 | 29.87951 | -95.54777 | 23840 ft | 363 kts | 270° |
| 2026-04-24 21:41 | 29.87760 | -95.57713 | 23836 ft | 373 kts | 270° |
| 2026-04-24 21:41 | 29.87562 | -95.60732 | 23834 ft | 382 kts | 270° |
| 2026-04-24 21:41 | 29.87359 | -95.63805 | 23833 ft | 386 kts | 270° |
| 2026-04-24 21:41 | 29.87153 | -95.66882 | 23831 ft | 386 kts | 269° |
| 2026-04-24 21:42 | 29.86943 | -95.69984 | 23833 ft | 385 kts | 269° |
| 2026-04-24 21:42 | 29.86736 | -95.73052 | 23834 ft | 384 kts | 269° |
| 2026-04-24 21:42 | 29.86526 | -95.76110 | 23835 ft | 384 kts | 269° |
| 2026-04-24 21:42 | 29.86140 | -95.79170 | 23831 ft | 388 kts | 262° |
| 2026-04-24 21:43 | 29.85511 | -95.82179 | 23838 ft | 390 kts | 261° |
| 2026-04-24 21:43 | 29.84858 | -95.85228 | 23835 ft | 390 kts | 261° |
| 2026-04-24 21:43 | 29.84222 | -95.88258 | 23834 ft | 389 kts | 261° |
| 2026-04-24 21:43 | 29.83583 | -95.91294 | 23835 ft | 389 kts | 261° |
| 2026-04-24 21:44 | 29.82948 | -95.94294 | 23835 ft | 389 kts | 261° |
| 2026-04-24 21:44 | 29.82300 | -95.97345 | 23834 ft | 389 kts | 261° |
| 2026-04-24 21:44 | 29.81663 | -96.00342 | 23835 ft | 390 kts | 261° |
| 2026-04-24 21:44 | 29.81015 | -96.03381 | 23835 ft | 390 kts | 261° |
| 2026-04-24 21:45 | 29.80368 | -96.06412 | 23835 ft | 389 kts | 261° |
| 2026-04-24 21:45 | 29.79715 | -96.09463 | 23835 ft | 389 kts | 261° |
| 2026-04-24 21:45 | 29.79067 | -96.12489 | 23835 ft | 389 kts | 261° |
| 2026-04-24 21:45 | 29.78529 | -96.15530 | 23830 ft | 386 kts | 267° |
| 2026-04-24 21:46 | 29.78340 | -96.18581 | 23838 ft | 383 kts | 271° |
| 2026-04-24 21:46 | 29.78329 | -96.21660 | 23835 ft | 381 kts | 276° |
| 2026-04-24 21:46 | 29.78499 | -96.24677 | 23837 ft | 381 kts | 277° |
| 2026-04-24 21:46 | 29.78697 | -96.27761 | 23835 ft | 381 kts | 277° |
| 2026-04-24 21:47 | 29.78894 | -96.30804 | 23834 ft | 381 kts | 277° |
| 2026-04-24 21:47 | 29.79030 | -96.32818 | 23835 ft | 381 kts | 277° |
| 2026-04-24 21:47 | 29.79314 | -96.36901 | 23834 ft | 381 kts | 278° |
| 2026-04-24 21:47 | 29.79530 | -96.39928 | 23834 ft | 381 kts | 277° |
| 2026-04-24 21:48 | 29.79752 | -96.42982 | 23629 ft | 382 kts | 277° |
| 2026-04-24 21:48 | 29.79970 | -96.45989 | 23205 ft | 371 kts | 277° |
| 2026-04-24 21:48 | 29.80183 | -96.48932 | 22685 ft | 367 kts | 277° |
| 2026-04-24 21:48 | 29.80415 | -96.51870 | 22120 ft | 374 kts | 280° |
| 2026-04-24 21:49 | 29.80988 | -96.54720 | 21552 ft | 365 kts | 289° |
| 2026-04-24 21:49 | 29.81907 | -96.57438 | 20987 ft | 362 kts | 295° |
| 2026-04-24 21:49 | 29.83188 | -96.59936 | 20414 ft | 369 kts | 307° |
| 2026-04-24 21:49 | 29.84873 | -96.62138 | 19827 ft | 363 kts | 312° |
| 2026-04-24 21:50 | 29.86584 | -96.64214 | 19247 ft | 361 kts | 312° |
| 2026-04-24 21:50 | 29.88334 | -96.66383 | 18658 ft | 366 kts | 311° |
| 2026-04-24 21:50 | 29.90044 | -96.68510 | 18083 ft | 360 kts | 311° |
| 2026-04-24 21:50 | 29.91706 | -96.70573 | 17855 ft | 350 kts | 311° |
| 2026-04-24 21:51 | 29.93387 | -96.72660 | 17603 ft | 365 kts | 311° |
| 2026-04-24 21:51 | 29.95120 | -96.74815 | 16874 ft | 370 kts | 312° |
| 2026-04-24 21:51 | 29.96851 | -96.76963 | 16262 ft | 364 kts | 312° |
| 2026-04-24 21:51 | 29.98560 | -96.79084 | 15668 ft | 358 kts | 312° |
| 2026-04-24 21:52 | 30.00236 | -96.81168 | 15123 ft | 353 kts | 312° |
| 2026-04-24 21:52 | 30.01906 | -96.83245 | 14550 ft | 360 kts | 312° |
| 2026-04-24 21:52 | 30.03532 | -96.85403 | 14078 ft | 351 kts | 307° |
| 2026-04-24 21:52 | 30.04878 | -96.87708 | 13873 ft | 337 kts | 300° |
| 2026-04-24 21:53 | 30.05850 | -96.90093 | 13652 ft | 325 kts | 291° |
| 2026-04-24 21:53 | 30.06600 | -96.92566 | 13230 ft | 331 kts | 289° |
| 2026-04-24 21:53 | 30.07356 | -96.95074 | 12733 ft | 332 kts | 289° |
| 2026-04-24 21:53 | 30.08113 | -96.97568 | 12232 ft | 328 kts | 289° |
| 2026-04-24 21:54 | 30.08866 | -97.00057 | 11730 ft | 325 kts | 289° |
| 2026-04-24 21:54 | 30.09607 | -97.02517 | 11236 ft | 328 kts | 289° |
| 2026-04-24 21:54 | 30.10360 | -97.05020 | 10723 ft | 326 kts | 288° |
| 2026-04-24 21:54 | 30.11097 | -97.07471 | 10361 ft | 318 kts | 288° |
| 2026-04-24 21:55 | 30.11806 | -97.09835 | 10209 ft | 304 kts | 288° |
| 2026-04-24 21:55 | 30.12483 | -97.12094 | 10093 ft | 290 kts | 288° |
| 2026-04-24 21:55 | 30.13124 | -97.14235 | 9889 ft | 281 kts | 288° |
| 2026-04-24 21:55 | 30.13767 | -97.16379 | 9497 ft | 280 kts | 288° |
| 2026-04-24 21:56 | 30.14397 | -97.18491 | 9189 ft | 276 kts | 287° |
| 2026-04-24 21:56 | 30.15018 | -97.20576 | 8855 ft | 273 kts | 287° |
| 2026-04-24 21:56 | 30.15636 | -97.22648 | 8516 ft | 270 kts | 287° |
| 2026-04-24 21:56 | 30.16247 | -97.24701 | 8181 ft | 275 kts | 287° |
| 2026-04-24 21:57 | 30.16872 | -97.26799 | 7830 ft | 274 kts | 287° |
| 2026-04-24 21:57 | 30.17506 | -97.28851 | 7486 ft | 272 kts | 290° |
| 2026-04-24 21:57 | 30.18241 | -97.30846 | 7143 ft | 270 kts | 292° |
| 2026-04-24 21:57 | 30.18992 | -97.32852 | 6798 ft | 267 kts | 291° |
| 2026-04-24 21:58 | 30.19721 | -97.34814 | 6451 ft | 266 kts | 291° |
| 2026-04-24 21:58 | 30.20444 | -97.36767 | 6126 ft | 268 kts | 291° |
| 2026-04-24 21:58 | 30.21187 | -97.38775 | 5897 ft | 263 kts | 292° |
| 2026-04-24 21:58 | 30.21930 | -97.40658 | 5653 ft | 259 kts | 293° |
| 2026-04-24 21:59 | 30.22698 | -97.42557 | 5322 ft | 257 kts | 293° |
| 2026-04-24 21:59 | 30.23442 | -97.44409 | 5010 ft | 255 kts | 293° |
| 2026-04-24 21:59 | 30.24190 | -97.46272 | 4702 ft | 253 kts | 293° |
| 2026-04-24 21:59 | 30.24925 | -97.48101 | 4402 ft | 251 kts | 293° |
| 2026-04-24 22:00 | 30.25655 | -97.49918 | 4105 ft | 249 kts | 293° |
| 2026-04-24 22:00 | 30.26380 | -97.51725 | 3951 ft | 242 kts | 293° |
| 2026-04-24 22:00 | 30.27069 | -97.53434 | 3894 ft | 227 kts | 295° |
| 2026-04-24 22:00 | 30.27961 | -97.54873 | 3787 ft | 215 kts | 316° |
| 2026-04-24 22:01 | 30.29073 | -97.55977 | 3808 ft | 208 kts | 318° |
| 2026-04-24 22:01 | 30.30252 | -97.56995 | 3813 ft | 212 kts | 334° |
| 2026-04-24 22:01 | 30.31684 | -97.57333 | 3818 ft | 213 kts | 0° |
| 2026-04-24 22:01 | 30.33163 | -97.57321 | 3823 ft | 214 kts | 360° |
| 2026-04-24 22:02 | 30.34656 | -97.57404 | 3804 ft | 213 kts | 347° |
| 2026-04-24 22:02 | 30.35883 | -97.58210 | 3795 ft | 200 kts | 306° |
| 2026-04-24 22:02 | 30.36418 | -97.59655 | 3764 ft | 197 kts | 280° |
| 2026-04-24 22:02 | 30.36536 | -97.60033 | 3666 ft | 202 kts | 306° |
| 2026-04-24 22:03 | 30.37216 | -97.60622 | 3063 ft | 225 kts | 17° |
| 2026-04-24 22:03 | 30.38071 | -97.59954 | 3010 ft | 205 kts | 82° |
| 2026-04-24 22:03 | 30.37049 | -97.59444 | 1458 ft | 231 kts | 230° |
| 2026-04-24 22:03 | 30.36848 | -97.60221 | 2019 ft | 223 kts | 272° |
| 2026-04-24 22:04 | 30.37253 | -97.61206 | 1941 ft | 235 kts | 322° |
| 2026-04-24 22:04 | 30.37514 | -97.61385 | 1595 ft | 249 kts | 2° |
| 2026-04-24 22:04 | 30.38369 | -97.60112 | 1440 ft | 209 kts | 98° |
| 2026-04-24 22:04 | 30.37966 | -97.59238 | 1252 ft | 220 kts | 160° |
| 2026-04-24 22:05 | 30.37002 | -97.58800 | 2341 ft | 229 kts | 153° |
| 2026-04-24 22:05 | 30.35581 | -97.58631 | 2865 ft | 209 kts | 197° |
| 2026-04-24 22:05 | 30.34342 | -97.59598 | 2846 ft | 210 kts | 197° |
| 2026-04-24 22:05 | 30.33131 | -97.59936 | 3360 ft | 163 kts | 206° |
| 2026-04-24 22:06 | 30.32020 | -97.60186 | 2669 ft | 209 kts | 139° |
| 2026-04-24 22:06 | 30.31954 | -97.60123 | 2450 ft | 221 kts | 130° |
| 2026-04-24 22:06 | 30.31164 | -97.59421 | 3249 ft | 277 kts | 167° |
| 2026-04-24 22:06 | 30.29772 | -97.59025 | 5469 ft | 164 kts | 150° |
| 2026-04-24 22:07 | 30.29039 | -97.58314 | 5496 ft | 185 kts | 101° |
| 2026-04-24 22:07 | 30.29917 | -97.56986 | 3060 ft | 290 kts | 25° |
| 2026-04-24 22:07 | 30.31056 | -97.55660 | 4812 ft | 203 kts | 44° |
| 2026-04-24 22:07 | 30.32185 | -97.54602 | 4433 ft | 233 kts | 17° |
| 2026-04-24 22:08 | 30.33483 | -97.53540 | 3477 ft | 244 kts | 60° |
| 2026-04-24 22:08 | 30.33929 | -97.51694 | 2831 ft | 234 kts | 82° |
| 2026-04-24 22:08 | 30.33583 | -97.50019 | 2672 ft | 215 kts | 111° |
| 2026-04-24 22:08 | 30.32730 | -97.48621 | 2705 ft | 202 kts | 161° |
| 2026-04-24 22:09 | 30.31455 | -97.48677 | 2741 ft | 189 kts | 186° |
| 2026-04-24 22:09 | 30.30475 | -97.49419 | 3003 ft | 154 kts | 244° |
| 2026-04-24 22:09 | 30.30615 | -97.50679 | 2765 ft | 173 kts | 281° |
| 2026-04-24 22:09 | 30.30979 | -97.52049 | 2654 ft | 176 kts | 271° |
| 2026-04-24 22:10 | 30.31031 | -97.53375 | 2871 ft | 158 kts | 255° |
| 2026-04-24 22:10 | 30.30697 | -97.54570 | 2823 ft | 158 kts | 234° |
| 2026-04-24 22:10 | 30.30135 | -97.55626 | 2628 ft | 160 kts | 219° |
| 2026-04-24 22:10 | 30.29265 | -97.56460 | 2482 ft | 165 kts | 211° |
| 2026-04-24 22:11 | 30.28273 | -97.57112 | 2071 ft | 170 kts | 211° |
| 2026-04-24 22:11 | 30.27347 | -97.57875 | 2120 ft | 157 kts | 211° |
| 2026-04-24 22:11 | 30.26555 | -97.58703 | 2171 ft | 149 kts | 215° |
| 2026-04-24 22:11 | 30.25728 | -97.59470 | 1942 ft | 152 kts | 216° |
| 2026-04-24 22:12 | 30.25155 | -97.60460 | 1592 ft | 159 kts | 230° |
| 2026-04-24 22:12 | 30.24520 | -97.61491 | 1429 ft | 147 kts | 239° |
| 2026-04-24 22:12 | 30.24203 | -97.62605 | 1242 ft | 150 kts | 250° |
| 2026-04-24 22:12 | 30.24015 | -97.63811 | 1077 ft | 148 kts | 241° |
| 2026-04-24 22:13 | 30.23529 | -97.64837 | 935 ft | 147 kts | 215° |
| 2026-04-24 22:13 | 30.22684 | -97.65370 | 772 ft | 142 kts | 193° |
| 2026-04-24 22:13 | 30.21706 | -97.65578 | 637 ft | 145 kts | 189° |
| 2026-04-24 22:13 | 30.20714 | -97.65767 | 540 ft | 146 kts | 175° |
| 2026-04-24 22:14 | 30.19741 | -97.65833 | 493 ft | 150 kts | 188° |
| 2026-04-24 22:14 | 30.18769 | -97.66251 | 1045 ft | 146 kts | 195° |
| 2026-04-24 22:14 | 30.17906 | -97.66702 | 1675 ft | 136 kts | 214° |
| 2026-04-24 22:14 | 30.17616 | -97.67495 | 1461 ft | 182 kts | 280° |